sensor_id;sensor_type;location;lat;lon;timestamp;P1;durP1;ratioP1;P2;durP2;ratioP2
57947;SDS011;43754;56.992;24.292;2022-10-15T00:00:53;22.60;;;13.13;;
57947;SDS011;43754;56.992;24.292;2022-10-15T00:03:35;15.88;;;9.77;;
57947;SDS011;43754;56.992;24.292;2022-10-15T00:06:09;18.42;;;10.65;;
57947;SDS011;43754;56.992;24.292;2022-10-15T00:08:43;16.38;;;10.63;;
57947;SDS011;43754;56.992;24.292;2022-10-15T00:11:17;18.38;;;12.13;;
57947;SDS011;43754;56.992;24.292;2022-10-15T00:13:51;20.52;;;11.73;;
57947;SDS011;43754;56.992;24.292;2022-10-15T00:16:24;20.52;;;10.73;;
57947;SDS011;43754;56.992;24.292;2022-10-15T00:18:58;16.40;;;10.60;;
57947;SDS011;43754;56.992;24.292;2022-10-15T00:21:30;17.92;;;9.65;;
57947;SDS011;43754;56.992;24.292;2022-10-15T00:24:03;29.45;;;12.63;;
57947;SDS011;43754;56.992;24.292;2022-10-15T00:26:37;17.45;;;10.85;;
57947;SDS011;43754;56.992;24.292;2022-10-15T00:29:08;19.73;;;10.13;;
57947;SDS011;43754;56.992;24.292;2022-10-15T00:31:41;16.58;;;9.57;;
57947;SDS011;43754;56.992;24.292;2022-10-15T00:34:13;16.42;;;10.05;;
57947;SDS011;43754;56.992;24.292;2022-10-15T00:36:45;18.67;;;10.13;;
57947;SDS011;43754;56.992;24.292;2022-10-15T00:39:16;15.63;;;9.23;;
57947;SDS011;43754;56.992;24.292;2022-10-15T00:41:50;13.80;;;8.93;;
57947;SDS011;43754;56.992;24.292;2022-10-15T00:47:29;16.17;;;9.07;;
57947;SDS011;43754;56.992;24.292;2022-10-15T00:50:08;15.00;;;8.77;;
57947;SDS011;43754;56.992;24.292;2022-10-15T00:52:44;18.52;;;11.23;;
57947;SDS011;43754;56.992;24.292;2022-10-15T00:55:24;19.45;;;11.05;;
57947;SDS011;43754;56.992;24.292;2022-10-15T00:58:02;17.55;;;9.88;;
57947;SDS011;43754;56.992;24.292;2022-10-15T01:00:37;14.57;;;9.82;;
57947;SDS011;43754;56.992;24.292;2022-10-15T01:03:09;16.90;;;11.00;;
57947;SDS011;43754;56.992;24.292;2022-10-15T01:05:43;17.73;;;10.43;;
57947;SDS011;43754;56.992;24.292;2022-10-15T01:08:19;15.80;;;10.18;;
57947;SDS011;43754;56.992;24.292;2022-10-15T01:10:53;17.63;;;10.73;;
57947;SDS011;43754;56.992;24.292;2022-10-15T01:13:37;22.48;;;10.38;;
57947;SDS011;43754;56.992;24.292;2022-10-15T01:16:23;19.60;;;9.63;;
57947;SDS011;43754;56.992;24.292;2022-10-15T01:19:05;20.23;;;10.18;;
57947;SDS011;43754;56.992;24.292;2022-10-15T01:21:46;18.50;;;10.73;;
57947;SDS011;43754;56.992;24.292;2022-10-15T01:27:34;20.10;;;9.25;;
57947;SDS011;43754;56.992;24.292;2022-10-15T01:30:20;19.23;;;10.80;;
57947;SDS011;43754;56.992;24.292;2022-10-15T01:33:06;19.88;;;10.18;;
57947;SDS011;43754;56.992;24.292;2022-10-15T01:35:47;18.50;;;11.90;;
57947;SDS011;43754;56.992;24.292;2022-10-15T01:38:34;15.40;;;9.52;;
57947;SDS011;43754;56.992;24.292;2022-10-15T01:41:15;13.43;;;9.45;;
57947;SDS011;43754;56.992;24.292;2022-10-15T01:43:56;17.40;;;9.60;;
57947;SDS011;43754;56.992;24.292;2022-10-15T01:46:47;15.35;;;8.32;;
57947;SDS011;43754;56.992;24.292;2022-10-15T01:49:26;16.45;;;9.85;;
57947;SDS011;43754;56.992;24.292;2022-10-15T01:52:05;14.27;;;8.48;;
57947;SDS011;43754;56.992;24.292;2022-10-15T01:54:41;20.70;;;9.23;;
57947;SDS011;43754;56.992;24.292;2022-10-15T01:57:14;19.63;;;9.38;;
57947;SDS011;43754;56.992;24.292;2022-10-15T01:59:48;16.10;;;9.95;;
57947;SDS011;43754;56.992;24.292;2022-10-15T02:02:21;18.10;;;9.90;;
57947;SDS011;43754;56.992;24.292;2022-10-15T02:04:54;17.10;;;10.23;;
57947;SDS011;43754;56.992;24.292;2022-10-15T02:07:28;16.23;;;8.70;;
57947;SDS011;43754;56.992;24.292;2022-10-15T02:10:09;20.73;;;9.60;;
57947;SDS011;43754;56.992;24.292;2022-10-15T02:12:49;18.00;;;10.38;;
57947;SDS011;43754;56.992;24.292;2022-10-15T02:15:40;17.83;;;8.93;;
57947;SDS011;43754;56.992;24.292;2022-10-15T02:18:23;14.68;;;8.32;;
57947;SDS011;43754;56.992;24.292;2022-10-15T02:21:04;16.92;;;9.10;;
57947;SDS011;43754;56.992;24.292;2022-10-15T02:23:40;16.85;;;8.68;;
57947;SDS011;43754;56.992;24.292;2022-10-15T02:26:19;17.17;;;9.00;;
57947;SDS011;43754;56.992;24.292;2022-10-15T02:28:53;14.68;;;8.93;;
57947;SDS011;43754;56.992;24.292;2022-10-15T02:31:29;16.40;;;8.38;;
57947;SDS011;43754;56.992;24.292;2022-10-15T02:34:05;16.23;;;8.95;;
57947;SDS011;43754;56.992;24.292;2022-10-15T02:36:40;22.55;;;8.75;;
57947;SDS011;43754;56.992;24.292;2022-10-15T02:39:14;14.07;;;8.80;;
57947;SDS011;43754;56.992;24.292;2022-10-15T02:41:49;11.70;;;8.30;;
57947;SDS011;43754;56.992;24.292;2022-10-15T02:44:22;19.38;;;8.68;;
57947;SDS011;43754;56.992;24.292;2022-10-15T02:46:54;15.35;;;8.70;;
57947;SDS011;43754;56.992;24.292;2022-10-15T02:49:28;17.20;;;9.07;;
57947;SDS011;43754;56.992;24.292;2022-10-15T02:52:00;14.35;;;8.18;;
57947;SDS011;43754;56.992;24.292;2022-10-15T02:54:32;18.17;;;9.60;;
57947;SDS011;43754;56.992;24.292;2022-10-15T02:57:04;17.83;;;8.48;;
57947;SDS011;43754;56.992;24.292;2022-10-15T02:59:36;21.48;;;9.95;;
57947;SDS011;43754;56.992;24.292;2022-10-15T03:02:08;13.93;;;8.30;;
57947;SDS011;43754;56.992;24.292;2022-10-15T03:04:47;19.08;;;9.05;;
57947;SDS011;43754;56.992;24.292;2022-10-15T03:07:19;22.00;;;9.57;;
57947;SDS011;43754;56.992;24.292;2022-10-15T03:09:52;16.10;;;7.82;;
57947;SDS011;43754;56.992;24.292;2022-10-15T03:12:25;14.57;;;9.35;;
57947;SDS011;43754;56.992;24.292;2022-10-15T03:14:58;15.98;;;8.05;;
57947;SDS011;43754;56.992;24.292;2022-10-15T03:17:29;16.83;;;9.18;;
57947;SDS011;43754;56.992;24.292;2022-10-15T03:20:03;12.07;;;7.88;;
57947;SDS011;43754;56.992;24.292;2022-10-15T03:22:39;13.82;;;8.18;;
57947;SDS011;43754;56.992;24.292;2022-10-15T03:25:11;16.83;;;8.05;;
57947;SDS011;43754;56.992;24.292;2022-10-15T03:27:44;13.45;;;8.20;;
57947;SDS011;43754;56.992;24.292;2022-10-15T03:30:27;13.48;;;8.10;;
57947;SDS011;43754;56.992;24.292;2022-10-15T03:32:59;12.32;;;7.38;;
57947;SDS011;43754;56.992;24.292;2022-10-15T03:35:32;16.58;;;8.48;;
57947;SDS011;43754;56.992;24.292;2022-10-15T03:38:05;14.18;;;7.00;;
57947;SDS011;43754;56.992;24.292;2022-10-15T03:40:37;16.83;;;8.68;;
57947;SDS011;43754;56.992;24.292;2022-10-15T03:43:33;14.38;;;8.80;;
57947;SDS011;43754;56.992;24.292;2022-10-15T03:46:11;18.17;;;9.38;;
57947;SDS011;43754;56.992;24.292;2022-10-15T03:48:47;14.10;;;8.07;;
57947;SDS011;43754;56.992;24.292;2022-10-15T03:51:21;12.65;;;8.52;;
57947;SDS011;43754;56.992;24.292;2022-10-15T03:54:06;15.95;;;8.52;;
57947;SDS011;43754;56.992;24.292;2022-10-15T03:56:44;15.85;;;8.90;;
57947;SDS011;43754;56.992;24.292;2022-10-15T03:59:27;14.75;;;8.18;;
57947;SDS011;43754;56.992;24.292;2022-10-15T04:02:02;20.83;;;9.90;;
57947;SDS011;43754;56.992;24.292;2022-10-15T04:04:36;15.88;;;8.68;;
57947;SDS011;43754;56.992;24.292;2022-10-15T04:07:09;16.77;;;8.60;;
57947;SDS011;43754;56.992;24.292;2022-10-15T04:09:41;14.63;;;8.30;;
57947;SDS011;43754;56.992;24.292;2022-10-15T04:12:29;17.98;;;8.63;;
57947;SDS011;43754;56.992;24.292;2022-10-15T04:15:01;13.68;;;7.72;;
57947;SDS011;43754;56.992;24.292;2022-10-15T04:17:34;17.25;;;9.20;;
57947;SDS011;43754;56.992;24.292;2022-10-15T04:20:07;16.13;;;8.75;;
57947;SDS011;43754;56.992;24.292;2022-10-15T04:25:23;11.73;;;7.80;;
57947;SDS011;43754;56.992;24.292;2022-10-15T04:27:55;16.77;;;8.38;;
57947;SDS011;43754;56.992;24.292;2022-10-15T04:30:27;19.52;;;9.13;;
57947;SDS011;43754;56.992;24.292;2022-10-15T04:33:03;14.90;;;8.60;;
57947;SDS011;43754;56.992;24.292;2022-10-15T04:35:35;17.30;;;8.65;;
57947;SDS011;43754;56.992;24.292;2022-10-15T04:38:13;15.35;;;8.68;;
57947;SDS011;43754;56.992;24.292;2022-10-15T04:41:08;11.77;;;6.63;;
57947;SDS011;43754;56.992;24.292;2022-10-15T04:43:54;14.50;;;8.70;;
57947;SDS011;43754;56.992;24.292;2022-10-15T04:46:26;15.90;;;8.10;;
57947;SDS011;43754;56.992;24.292;2022-10-15T04:49:01;16.90;;;8.45;;
57947;SDS011;43754;56.992;24.292;2022-10-15T04:51:33;14.75;;;8.65;;
57947;SDS011;43754;56.992;24.292;2022-10-15T04:54:19;10.23;;;7.93;;
57947;SDS011;43754;56.992;24.292;2022-10-15T04:57:01;13.65;;;8.05;;
57947;SDS011;43754;56.992;24.292;2022-10-15T04:59:34;18.13;;;9.05;;
57947;SDS011;43754;56.992;24.292;2022-10-15T05:02:26;13.75;;;8.38;;
57947;SDS011;43754;56.992;24.292;2022-10-15T05:05:11;14.43;;;8.80;;
57947;SDS011;43754;56.992;24.292;2022-10-15T05:07:53;9.80;;;7.53;;
57947;SDS011;43754;56.992;24.292;2022-10-15T05:10:25;16.02;;;8.85;;
57947;SDS011;43754;56.992;24.292;2022-10-15T05:13:00;14.10;;;8.52;;
57947;SDS011;43754;56.992;24.292;2022-10-15T05:15:35;19.88;;;10.30;;
57947;SDS011;43754;56.992;24.292;2022-10-15T05:18:10;14.90;;;8.73;;
57947;SDS011;43754;56.992;24.292;2022-10-15T05:20:53;13.43;;;8.60;;
57947;SDS011;43754;56.992;24.292;2022-10-15T05:23:25;15.43;;;8.95;;
57947;SDS011;43754;56.992;24.292;2022-10-15T05:26:11;15.20;;;9.23;;
57947;SDS011;43754;56.992;24.292;2022-10-15T05:28:46;19.42;;;9.70;;
57947;SDS011;43754;56.992;24.292;2022-10-15T05:31:28;17.95;;;9.80;;
57947;SDS011;43754;56.992;24.292;2022-10-15T05:34:26;15.95;;;9.77;;
57947;SDS011;43754;56.992;24.292;2022-10-15T05:37:08;15.50;;;9.82;;
57947;SDS011;43754;56.992;24.292;2022-10-15T05:39:43;18.45;;;9.55;;
57947;SDS011;43754;56.992;24.292;2022-10-15T05:42:15;13.02;;;8.82;;
57947;SDS011;43754;56.992;24.292;2022-10-15T05:44:56;18.23;;;10.32;;
57947;SDS011;43754;56.992;24.292;2022-10-15T05:47:28;15.80;;;9.27;;
57947;SDS011;43754;56.992;24.292;2022-10-15T05:50:16;16.20;;;9.05;;
57947;SDS011;43754;56.992;24.292;2022-10-15T05:52:51;19.30;;;10.02;;
57947;SDS011;43754;56.992;24.292;2022-10-15T05:55:51;20.13;;;10.35;;
57947;SDS011;43754;56.992;24.292;2022-10-15T05:58:23;16.42;;;11.32;;
57947;SDS011;43754;56.992;24.292;2022-10-15T06:00:57;19.90;;;10.18;;
57947;SDS011;43754;56.992;24.292;2022-10-15T06:03:32;16.33;;;11.32;;
57947;SDS011;43754;56.992;24.292;2022-10-15T06:06:04;18.60;;;10.95;;
57947;SDS011;43754;56.992;24.292;2022-10-15T06:08:43;14.53;;;9.77;;
57947;SDS011;43754;56.992;24.292;2022-10-15T06:11:16;19.25;;;10.32;;
57947;SDS011;43754;56.992;24.292;2022-10-15T06:13:48;19.08;;;10.43;;
57947;SDS011;43754;56.992;24.292;2022-10-15T06:16:21;19.27;;;11.68;;
57947;SDS011;43754;56.992;24.292;2022-10-15T06:18:54;16.70;;;10.80;;
57947;SDS011;43754;56.992;24.292;2022-10-15T06:21:26;20.83;;;11.32;;
57947;SDS011;43754;56.992;24.292;2022-10-15T06:23:58;16.58;;;10.23;;
57947;SDS011;43754;56.992;24.292;2022-10-15T06:26:30;18.30;;;10.35;;
57947;SDS011;43754;56.992;24.292;2022-10-15T06:29:02;17.90;;;10.20;;
57947;SDS011;43754;56.992;24.292;2022-10-15T06:31:36;15.68;;;10.80;;
57947;SDS011;43754;56.992;24.292;2022-10-15T06:34:08;20.25;;;11.55;;
57947;SDS011;43754;56.992;24.292;2022-10-15T06:36:40;15.60;;;10.50;;
57947;SDS011;43754;56.992;24.292;2022-10-15T06:39:12;16.55;;;10.73;;
57947;SDS011;43754;56.992;24.292;2022-10-15T06:41:45;15.93;;;10.25;;
57947;SDS011;43754;56.992;24.292;2022-10-15T06:44:17;16.98;;;10.65;;
57947;SDS011;43754;56.992;24.292;2022-10-15T06:46:50;16.20;;;10.52;;
57947;SDS011;43754;56.992;24.292;2022-10-15T06:49:22;15.38;;;9.23;;
57947;SDS011;43754;56.992;24.292;2022-10-15T06:51:54;17.63;;;11.38;;
57947;SDS011;43754;56.992;24.292;2022-10-15T06:54:34;15.32;;;9.90;;
57947;SDS011;43754;56.992;24.292;2022-10-15T06:57:07;15.30;;;10.23;;
57947;SDS011;43754;56.992;24.292;2022-10-15T06:59:39;16.27;;;10.50;;
57947;SDS011;43754;56.992;24.292;2022-10-15T07:02:13;19.25;;;10.68;;
57947;SDS011;43754;56.992;24.292;2022-10-15T07:04:46;20.35;;;11.27;;
57947;SDS011;43754;56.992;24.292;2022-10-15T07:07:23;19.58;;;12.07;;
57947;SDS011;43754;56.992;24.292;2022-10-15T07:09:55;16.42;;;11.10;;
57947;SDS011;43754;56.992;24.292;2022-10-15T07:12:27;16.13;;;10.27;;
57947;SDS011;43754;56.992;24.292;2022-10-15T07:14:59;18.27;;;10.20;;
57947;SDS011;43754;56.992;24.292;2022-10-15T07:17:33;17.55;;;10.63;;
57947;SDS011;43754;56.992;24.292;2022-10-15T07:20:06;18.92;;;11.27;;
57947;SDS011;43754;56.992;24.292;2022-10-15T07:22:38;15.45;;;10.35;;
57947;SDS011;43754;56.992;24.292;2022-10-15T07:25:10;18.10;;;10.13;;
57947;SDS011;43754;56.992;24.292;2022-10-15T07:27:42;18.42;;;11.68;;
57947;SDS011;43754;56.992;24.292;2022-10-15T07:30:14;17.48;;;10.35;;
57947;SDS011;43754;56.992;24.292;2022-10-15T07:32:48;15.93;;;10.48;;
57947;SDS011;43754;56.992;24.292;2022-10-15T07:35:20;16.85;;;10.60;;
57947;SDS011;43754;56.992;24.292;2022-10-15T07:37:52;16.55;;;10.70;;
57947;SDS011;43754;56.992;24.292;2022-10-15T07:40:25;15.35;;;11.07;;
57947;SDS011;43754;56.992;24.292;2022-10-15T07:42:57;21.65;;;11.15;;
57947;SDS011;43754;56.992;24.292;2022-10-15T07:45:34;18.80;;;11.15;;
57947;SDS011;43754;56.992;24.292;2022-10-15T07:48:08;21.27;;;11.68;;
57947;SDS011;43754;56.992;24.292;2022-10-15T07:50:40;19.05;;;11.55;;
57947;SDS011;43754;56.992;24.292;2022-10-15T07:53:12;17.33;;;12.00;;
57947;SDS011;43754;56.992;24.292;2022-10-15T07:55:55;20.17;;;11.23;;
57947;SDS011;43754;56.992;24.292;2022-10-15T07:58:33;20.65;;;11.73;;
57947;SDS011;43754;56.992;24.292;2022-10-15T08:01:06;20.58;;;11.57;;
57947;SDS011;43754;56.992;24.292;2022-10-15T08:03:40;21.67;;;12.15;;
57947;SDS011;43754;56.992;24.292;2022-10-15T08:06:12;16.80;;;11.05;;
57947;SDS011;43754;56.992;24.292;2022-10-15T08:08:44;21.02;;;11.55;;
57947;SDS011;43754;56.992;24.292;2022-10-15T08:11:18;23.20;;;11.23;;
57947;SDS011;43754;56.992;24.292;2022-10-15T08:13:51;20.45;;;12.57;;
57947;SDS011;43754;56.992;24.292;2022-10-15T08:16:23;16.58;;;11.77;;
57947;SDS011;43754;56.992;24.292;2022-10-15T08:19:02;18.58;;;11.48;;
57947;SDS011;43754;56.992;24.292;2022-10-15T08:21:34;17.58;;;11.52;;
57947;SDS011;43754;56.992;24.292;2022-10-15T08:24:06;17.90;;;12.95;;
57947;SDS011;43754;56.992;24.292;2022-10-15T08:26:38;21.15;;;13.32;;
57947;SDS011;43754;56.992;24.292;2022-10-15T08:29:10;21.90;;;12.70;;
57947;SDS011;43754;56.992;24.292;2022-10-15T08:31:43;19.23;;;12.77;;
57947;SDS011;43754;56.992;24.292;2022-10-15T08:34:16;21.60;;;11.95;;
57947;SDS011;43754;56.992;24.292;2022-10-15T08:36:48;17.88;;;11.27;;
57947;SDS011;43754;56.992;24.292;2022-10-15T08:39:20;18.75;;;11.75;;
57947;SDS011;43754;56.992;24.292;2022-10-15T08:41:53;21.52;;;12.18;;
57947;SDS011;43754;56.992;24.292;2022-10-15T08:44:28;18.60;;;11.73;;
57947;SDS011;43754;56.992;24.292;2022-10-15T08:47:03;22.48;;;13.20;;
57947;SDS011;43754;56.992;24.292;2022-10-15T08:49:41;16.90;;;12.50;;
57947;SDS011;43754;56.992;24.292;2022-10-15T08:52:20;20.48;;;12.60;;
57947;SDS011;43754;56.992;24.292;2022-10-15T08:54:58;17.70;;;11.50;;
57947;SDS011;43754;56.992;24.292;2022-10-15T08:57:35;18.42;;;11.43;;
57947;SDS011;43754;56.992;24.292;2022-10-15T09:00:13;19.80;;;11.48;;
57947;SDS011;43754;56.992;24.292;2022-10-15T09:02:52;23.20;;;11.68;;
57947;SDS011;43754;56.992;24.292;2022-10-15T09:05:33;19.05;;;11.77;;
57947;SDS011;43754;56.992;24.292;2022-10-15T09:08:14;18.60;;;11.40;;
57947;SDS011;43754;56.992;24.292;2022-10-15T09:10:54;19.17;;;12.00;;
57947;SDS011;43754;56.992;24.292;2022-10-15T09:13:31;33.67;;;14.27;;
57947;SDS011;43754;56.992;24.292;2022-10-15T09:16:11;22.42;;;13.40;;
57947;SDS011;43754;56.992;24.292;2022-10-15T09:18:47;17.05;;;12.45;;
57947;SDS011;43754;56.992;24.292;2022-10-15T09:21:24;17.40;;;11.07;;
57947;SDS011;43754;56.992;24.292;2022-10-15T09:24:00;19.23;;;10.50;;
57947;SDS011;43754;56.992;24.292;2022-10-15T09:26:34;16.27;;;10.73;;
57947;SDS011;43754;56.992;24.292;2022-10-15T09:29:16;18.23;;;11.80;;
57947;SDS011;43754;56.992;24.292;2022-10-15T09:31:57;18.58;;;11.15;;
57947;SDS011;43754;56.992;24.292;2022-10-15T09:34:38;16.95;;;11.95;;
57947;SDS011;43754;56.992;24.292;2022-10-15T09:37:16;17.27;;;10.90;;
57947;SDS011;43754;56.992;24.292;2022-10-15T09:40:10;19.15;;;12.10;;
57947;SDS011;43754;56.992;24.292;2022-10-15T09:42:58;17.50;;;12.13;;
57947;SDS011;43754;56.992;24.292;2022-10-15T09:45:32;16.83;;;11.70;;
57947;SDS011;43754;56.992;24.292;2022-10-15T09:48:05;18.98;;;10.68;;
57947;SDS011;43754;56.992;24.292;2022-10-15T09:50:48;19.33;;;11.93;;
57947;SDS011;43754;56.992;24.292;2022-10-15T09:53:31;19.08;;;10.50;;
57947;SDS011;43754;56.992;24.292;2022-10-15T09:56:14;15.20;;;10.95;;
57947;SDS011;43754;56.992;24.292;2022-10-15T09:58:49;19.55;;;11.48;;
57947;SDS011;43754;56.992;24.292;2022-10-15T10:01:24;22.85;;;12.98;;
57947;SDS011;43754;56.992;24.292;2022-10-15T10:04:12;16.48;;;13.27;;
57947;SDS011;43754;56.992;24.292;2022-10-15T10:06:49;19.90;;;12.77;;
57947;SDS011;43754;56.992;24.292;2022-10-15T10:09:26;20.08;;;13.45;;
57947;SDS011;43754;56.992;24.292;2022-10-15T10:12:03;21.15;;;13.02;;
57947;SDS011;43754;56.992;24.292;2022-10-15T10:14:38;20.48;;;12.20;;
57947;SDS011;43754;56.992;24.292;2022-10-15T10:17:16;40.70;;;19.33;;
57947;SDS011;43754;56.992;24.292;2022-10-15T10:20:01;22.30;;;14.40;;
57947;SDS011;43754;56.992;24.292;2022-10-15T10:22:46;20.15;;;14.63;;
57947;SDS011;43754;56.992;24.292;2022-10-15T10:25:27;22.02;;;15.45;;
57947;SDS011;43754;56.992;24.292;2022-10-15T10:28:05;19.45;;;14.50;;
57947;SDS011;43754;56.992;24.292;2022-10-15T10:30:58;23.50;;;15.80;;
57947;SDS011;43754;56.992;24.292;2022-10-15T10:33:35;24.35;;;15.52;;
57947;SDS011;43754;56.992;24.292;2022-10-15T10:36:20;36.10;;;25.58;;
57947;SDS011;43754;56.992;24.292;2022-10-15T10:38:59;36.95;;;31.10;;
57947;SDS011;43754;56.992;24.292;2022-10-15T10:41:49;29.52;;;20.52;;
57947;SDS011;43754;56.992;24.292;2022-10-15T10:44:26;27.20;;;17.85;;
57947;SDS011;43754;56.992;24.292;2022-10-15T10:47:09;57.22;;;44.40;;
57947;SDS011;43754;56.992;24.292;2022-10-15T10:49:44;46.38;;;39.15;;
57947;SDS011;43754;56.992;24.292;2022-10-15T10:52:20;32.55;;;22.80;;
57947;SDS011;43754;56.992;24.292;2022-10-15T10:54:58;57.42;;;41.97;;
57947;SDS011;43754;56.992;24.292;2022-10-15T10:57:34;32.78;;;23.65;;
57947;SDS011;43754;56.992;24.292;2022-10-15T11:00:13;33.45;;;22.75;;
57947;SDS011;43754;56.992;24.292;2022-10-15T11:02:51;32.08;;;21.98;;
57947;SDS011;43754;56.992;24.292;2022-10-15T11:05:24;40.53;;;28.48;;
57947;SDS011;43754;56.992;24.292;2022-10-15T11:07:59;115.85;;;93.07;;
57947;SDS011;43754;56.992;24.292;2022-10-15T11:10:42;229.52;;;165.93;;
57947;SDS011;43754;56.992;24.292;2022-10-15T11:13:32;149.27;;;133.85;;
57947;SDS011;43754;56.992;24.292;2022-10-15T11:16:22;45.60;;;28.13;;
57947;SDS011;43754;56.992;24.292;2022-10-15T11:19:09;35.53;;;22.63;;
57947;SDS011;43754;56.992;24.292;2022-10-15T11:22:18;37.28;;;22.33;;
57947;SDS011;43754;56.992;24.292;2022-10-15T11:25:14;36.85;;;23.42;;
57947;SDS011;43754;56.992;24.292;2022-10-15T11:28:06;31.45;;;20.83;;
57947;SDS011;43754;56.992;24.292;2022-10-15T11:30:51;36.08;;;23.00;;
57947;SDS011;43754;56.992;24.292;2022-10-15T11:33:37;37.05;;;23.27;;
57947;SDS011;43754;56.992;24.292;2022-10-15T11:36:30;35.70;;;23.20;;
57947;SDS011;43754;56.992;24.292;2022-10-15T11:39:32;38.50;;;24.55;;
57947;SDS011;43754;56.992;24.292;2022-10-15T11:42:14;38.60;;;26.08;;
57947;SDS011;43754;56.992;24.292;2022-10-15T11:44:55;34.08;;;23.60;;
57947;SDS011;43754;56.992;24.292;2022-10-15T11:47:45;38.08;;;26.10;;
57947;SDS011;43754;56.992;24.292;2022-10-15T11:50:26;43.03;;;26.70;;
57947;SDS011;43754;56.992;24.292;2022-10-15T11:53:08;50.40;;;28.65;;
57947;SDS011;43754;56.992;24.292;2022-10-15T11:55:56;42.13;;;26.58;;
57947;SDS011;43754;56.992;24.292;2022-10-15T11:58:37;37.38;;;22.73;;
57947;SDS011;43754;56.992;24.292;2022-10-15T12:01:14;42.90;;;26.27;;
57947;SDS011;43754;56.992;24.292;2022-10-15T12:03:52;44.83;;;26.60;;
57947;SDS011;43754;56.992;24.292;2022-10-15T12:06:27;36.28;;;23.48;;
57947;SDS011;43754;56.992;24.292;2022-10-15T12:09:03;37.90;;;23.58;;
57947;SDS011;43754;56.992;24.292;2022-10-15T12:11:39;41.47;;;26.27;;
57947;SDS011;43754;56.992;24.292;2022-10-15T12:14:19;40.78;;;26.58;;
57947;SDS011;43754;56.992;24.292;2022-10-15T12:16:57;42.17;;;26.33;;
57947;SDS011;43754;56.992;24.292;2022-10-15T12:19:40;39.85;;;25.15;;
57947;SDS011;43754;56.992;24.292;2022-10-15T12:22:30;32.42;;;18.38;;
57947;SDS011;43754;56.992;24.292;2022-10-15T12:25:05;42.40;;;26.83;;
57947;SDS011;43754;56.992;24.292;2022-10-15T12:27:59;50.92;;;27.73;;
57947;SDS011;43754;56.992;24.292;2022-10-15T12:30:32;41.10;;;25.98;;
57947;SDS011;43754;56.992;24.292;2022-10-15T12:33:20;42.28;;;27.27;;
57947;SDS011;43754;56.992;24.292;2022-10-15T12:35:57;36.10;;;23.33;;
57947;SDS011;43754;56.992;24.292;2022-10-15T12:38:31;41.97;;;24.45;;
57947;SDS011;43754;56.992;24.292;2022-10-15T12:41:06;44.60;;;26.30;;
57947;SDS011;43754;56.992;24.292;2022-10-15T12:43:40;35.10;;;22.67;;
57947;SDS011;43754;56.992;24.292;2022-10-15T12:46:15;41.03;;;26.65;;
57947;SDS011;43754;56.992;24.292;2022-10-15T12:48:47;36.03;;;23.77;;
57947;SDS011;43754;56.992;24.292;2022-10-15T12:54:32;40.05;;;23.70;;
57947;SDS011;43754;56.992;24.292;2022-10-15T13:03:07;32.08;;;21.35;;
57947;SDS011;43754;56.992;24.292;2022-10-15T13:05:54;36.28;;;21.65;;
57947;SDS011;43754;56.992;24.292;2022-10-15T13:08:43;36.67;;;23.40;;
57947;SDS011;43754;56.992;24.292;2022-10-15T13:11:19;32.95;;;21.90;;
57947;SDS011;43754;56.992;24.292;2022-10-15T13:13:57;37.47;;;23.10;;
57947;SDS011;43754;56.992;24.292;2022-10-15T13:16:32;33.20;;;21.60;;
57947;SDS011;43754;56.992;24.292;2022-10-15T13:19:06;34.70;;;23.95;;
57947;SDS011;43754;56.992;24.292;2022-10-15T13:21:50;36.58;;;24.00;;
57947;SDS011;43754;56.992;24.292;2022-10-15T13:24:26;31.80;;;21.75;;
57947;SDS011;43754;56.992;24.292;2022-10-15T13:26:59;31.67;;;21.70;;
57947;SDS011;43754;56.992;24.292;2022-10-15T13:29:31;34.20;;;20.58;;
57947;SDS011;43754;56.992;24.292;2022-10-15T13:32:06;32.25;;;19.90;;
57947;SDS011;43754;56.992;24.292;2022-10-15T13:34:44;26.70;;;19.30;;
57947;SDS011;43754;56.992;24.292;2022-10-15T13:37:17;26.73;;;17.85;;
57947;SDS011;43754;56.992;24.292;2022-10-15T13:39:54;27.20;;;17.55;;
57947;SDS011;43754;56.992;24.292;2022-10-15T13:42:27;24.67;;;17.80;;
57947;SDS011;43754;56.992;24.292;2022-10-15T13:45:00;26.35;;;18.38;;
57947;SDS011;43754;56.992;24.292;2022-10-15T13:47:35;33.25;;;19.23;;
57947;SDS011;43754;56.992;24.292;2022-10-15T13:50:18;24.42;;;18.50;;
57947;SDS011;43754;56.992;24.292;2022-10-15T13:52:53;28.33;;;19.77;;
57947;SDS011;43754;56.992;24.292;2022-10-15T13:55:30;65.70;;;50.45;;
57947;SDS011;43754;56.992;24.292;2022-10-15T13:58:05;35.80;;;22.13;;
57947;SDS011;43754;56.992;24.292;2022-10-15T14:00:54;28.38;;;20.50;;
57947;SDS011;43754;56.992;24.292;2022-10-15T14:03:29;25.55;;;18.67;;
57947;SDS011;43754;56.992;24.292;2022-10-15T14:06:08;29.63;;;20.67;;
57947;SDS011;43754;56.992;24.292;2022-10-15T14:08:45;31.65;;;19.80;;
57947;SDS011;43754;56.992;24.292;2022-10-15T14:11:20;29.08;;;21.80;;
57947;SDS011;43754;56.992;24.292;2022-10-15T14:13:53;32.30;;;21.52;;
57947;SDS011;43754;56.992;24.292;2022-10-15T14:16:27;28.33;;;21.55;;
57947;SDS011;43754;56.992;24.292;2022-10-15T14:19:07;31.60;;;20.25;;
57947;SDS011;43754;56.992;24.292;2022-10-15T14:21:41;37.20;;;26.08;;
57947;SDS011;43754;56.992;24.292;2022-10-15T14:24:18;34.17;;;21.83;;
57947;SDS011;43754;56.992;24.292;2022-10-15T14:26:54;27.27;;;20.88;;
57947;SDS011;43754;56.992;24.292;2022-10-15T14:29:35;29.50;;;20.05;;
57947;SDS011;43754;56.992;24.292;2022-10-15T14:32:20;33.78;;;20.13;;
57947;SDS011;43754;56.992;24.292;2022-10-15T14:34:54;35.58;;;21.65;;
57947;SDS011;43754;56.992;24.292;2022-10-15T14:37:31;35.33;;;21.65;;
57947;SDS011;43754;56.992;24.292;2022-10-15T14:40:14;37.78;;;22.13;;
57947;SDS011;43754;56.992;24.292;2022-10-15T14:43:00;35.70;;;22.92;;
57947;SDS011;43754;56.992;24.292;2022-10-15T14:45:36;40.00;;;24.33;;
57947;SDS011;43754;56.992;24.292;2022-10-15T14:48:15;32.90;;;20.38;;
57947;SDS011;43754;56.992;24.292;2022-10-15T14:50:50;34.17;;;21.10;;
57947;SDS011;43754;56.992;24.292;2022-10-15T14:53:24;36.08;;;22.40;;
57947;SDS011;43754;56.992;24.292;2022-10-15T14:55:58;40.20;;;22.50;;
57947;SDS011;43754;56.992;24.292;2022-10-15T14:58:34;29.45;;;20.35;;
57947;SDS011;43754;56.992;24.292;2022-10-15T15:01:12;30.58;;;19.17;;
57947;SDS011;43754;56.992;24.292;2022-10-15T15:03:47;33.80;;;19.80;;
57947;SDS011;43754;56.992;24.292;2022-10-15T15:06:21;31.50;;;21.23;;
57947;SDS011;43754;56.992;24.292;2022-10-15T15:08:54;49.55;;;29.13;;
57947;SDS011;43754;56.992;24.292;2022-10-15T15:11:26;33.08;;;20.90;;
57947;SDS011;43754;56.992;24.292;2022-10-15T15:13:59;35.40;;;20.25;;
57947;SDS011;43754;56.992;24.292;2022-10-15T15:16:31;32.13;;;22.85;;
57947;SDS011;43754;56.992;24.292;2022-10-15T15:19:06;35.22;;;22.17;;
57947;SDS011;43754;56.992;24.292;2022-10-15T15:21:39;35.50;;;21.83;;
57947;SDS011;43754;56.992;24.292;2022-10-15T15:24:11;30.60;;;20.20;;
57947;SDS011;43754;56.992;24.292;2022-10-15T15:26:43;38.38;;;22.30;;
57947;SDS011;43754;56.992;24.292;2022-10-15T15:29:16;27.42;;;18.42;;